sensor_id;sensor_type;location;lat;lon;timestamp;P1;durP1;ratioP1;P2;durP2;ratioP2
505;SDS011;551;48.524;9.056;2023-04-25T00:02:24;4.80;;;3.73;;
505;SDS011;551;48.524;9.056;2023-04-25T00:04:50;4.67;;;3.33;;
505;SDS011;551;48.524;9.056;2023-04-25T00:07:15;10.87;;;3.90;;
505;SDS011;551;48.524;9.056;2023-04-25T00:09:41;3.80;;;3.40;;
505;SDS011;551;48.524;9.056;2023-04-25T00:12:07;4.53;;;3.93;;
505;SDS011;551;48.524;9.056;2023-04-25T00:14:33;4.40;;;3.50;;
505;SDS011;551;48.524;9.056;2023-04-25T00:16:59;4.40;;;3.80;;
505;SDS011;551;48.524;9.056;2023-04-25T00:19:25;4.23;;;3.43;;
505;SDS011;551;48.524;9.056;2023-04-25T00:21:53;5.27;;;3.20;;
505;SDS011;551;48.524;9.056;2023-04-25T00:24:22;3.33;;;3.03;;
505;SDS011;551;48.524;9.056;2023-04-25T00:26:47;3.67;;;3.37;;
505;SDS011;551;48.524;9.056;2023-04-25T00:29:13;4.03;;;3.40;;
505;SDS011;551;48.524;9.056;2023-04-25T00:31:38;6.63;;;3.83;;
505;SDS011;551;48.524;9.056;2023-04-25T00:34:05;6.13;;;3.33;;
505;SDS011;551;48.524;9.056;2023-04-25T00:36:32;3.93;;;3.30;;
505;SDS011;551;48.524;9.056;2023-04-25T00:38:57;6.47;;;3.07;;
505;SDS011;551;48.524;9.056;2023-04-25T00:41:23;3.50;;;3.20;;
505;SDS011;551;48.524;9.056;2023-04-25T00:43:50;5.17;;;4.07;;
505;SDS011;551;48.524;9.056;2023-04-25T00:46:18;5.73;;;3.43;;
505;SDS011;551;48.524;9.056;2023-04-25T00:48:44;5.00;;;3.83;;
505;SDS011;551;48.524;9.056;2023-04-25T00:51:09;4.80;;;4.03;;
505;SDS011;551;48.524;9.056;2023-04-25T00:53:40;3.97;;;3.23;;
505;SDS011;551;48.524;9.056;2023-04-25T00:56:06;5.73;;;3.53;;
505;SDS011;551;48.524;9.056;2023-04-25T00:58:31;4.80;;;3.70;;
505;SDS011;551;48.524;9.056;2023-04-25T01:00:57;5.67;;;3.70;;
505;SDS011;551;48.524;9.056;2023-04-25T01:03:24;7.27;;;3.60;;
505;SDS011;551;48.524;9.056;2023-04-25T01:05:51;3.93;;;3.53;;
505;SDS011;551;48.524;9.056;2023-04-25T01:08:17;4.43;;;3.80;;
505;SDS011;551;48.524;9.056;2023-04-25T01:10:42;4.83;;;3.77;;
505;SDS011;551;48.524;9.056;2023-04-25T01:13:08;4.47;;;4.07;;
505;SDS011;551;48.524;9.056;2023-04-25T01:15:33;4.30;;;3.47;;
505;SDS011;551;48.524;9.056;2023-04-25T01:18:00;4.07;;;3.67;;
505;SDS011;551;48.524;9.056;2023-04-25T01:20:26;4.33;;;3.50;;
505;SDS011;551;48.524;9.056;2023-04-25T01:22:53;4.33;;;3.90;;
505;SDS011;551;48.524;9.056;2023-04-25T01:25:21;5.50;;;4.70;;
505;SDS011;551;48.524;9.056;2023-04-25T01:27:47;5.17;;;3.90;;
505;SDS011;551;48.524;9.056;2023-04-25T01:30:13;8.93;;;4.63;;
505;SDS011;551;48.524;9.056;2023-04-25T01:32:39;7.13;;;4.17;;
505;SDS011;551;48.524;9.056;2023-04-25T01:35:06;5.43;;;3.70;;
505;SDS011;551;48.524;9.056;2023-04-25T01:37:35;9.20;;;4.70;;
505;SDS011;551;48.524;9.056;2023-04-25T01:40:02;4.87;;;4.27;;
505;SDS011;551;48.524;9.056;2023-04-25T01:42:30;9.13;;;4.33;;
505;SDS011;551;48.524;9.056;2023-04-25T01:44:56;7.90;;;5.17;;
505;SDS011;551;48.524;9.056;2023-04-25T01:47:22;5.30;;;4.80;;
505;SDS011;551;48.524;9.056;2023-04-25T01:49:48;6.57;;;4.40;;
505;SDS011;551;48.524;9.056;2023-04-25T01:52:14;4.40;;;4.00;;
505;SDS011;551;48.524;9.056;2023-04-25T01:54:40;9.07;;;4.93;;
505;SDS011;551;48.524;9.056;2023-04-25T01:57:09;5.10;;;4.60;;
505;SDS011;551;48.524;9.056;2023-04-25T01:59:35;5.00;;;4.50;;
505;SDS011;551;48.524;9.056;2023-04-25T02:02:01;9.50;;;4.90;;
505;SDS011;551;48.524;9.056;2023-04-25T02:04:28;4.10;;;3.70;;
505;SDS011;551;48.524;9.056;2023-04-25T02:06:54;8.50;;;4.47;;
505;SDS011;551;48.524;9.056;2023-04-25T02:09:20;7.43;;;4.73;;
505;SDS011;551;48.524;9.056;2023-04-25T02:11:46;5.03;;;4.50;;
505;SDS011;551;48.524;9.056;2023-04-25T02:14:11;5.63;;;4.40;;
505;SDS011;551;48.524;9.056;2023-04-25T02:16:37;4.83;;;4.10;;
505;SDS011;551;48.524;9.056;2023-04-25T02:19:03;4.87;;;4.47;;
505;SDS011;551;48.524;9.056;2023-04-25T02:21:29;5.60;;;4.37;;
505;SDS011;551;48.524;9.056;2023-04-25T02:23:55;7.23;;;5.20;;
505;SDS011;551;48.524;9.056;2023-04-25T02:26:21;5.07;;;4.53;;
505;SDS011;551;48.524;9.056;2023-04-25T02:28:48;4.57;;;4.17;;
505;SDS011;551;48.524;9.056;2023-04-25T02:31:14;5.20;;;4.60;;
505;SDS011;551;48.524;9.056;2023-04-25T02:33:40;4.27;;;3.80;;
505;SDS011;551;48.524;9.056;2023-04-25T02:36:06;6.10;;;3.60;;
505;SDS011;551;48.524;9.056;2023-04-25T02:38:31;6.00;;;4.07;;
505;SDS011;551;48.524;9.056;2023-04-25T02:40:57;4.23;;;3.73;;
505;SDS011;551;48.524;9.056;2023-04-25T02:43:22;7.40;;;4.40;;
505;SDS011;551;48.524;9.056;2023-04-25T02:45:48;7.67;;;4.40;;
505;SDS011;551;48.524;9.056;2023-04-25T02:48:13;7.33;;;4.60;;
505;SDS011;551;48.524;9.056;2023-04-25T02:50:39;7.67;;;5.03;;
505;SDS011;551;48.524;9.056;2023-04-25T02:53:04;8.77;;;5.17;;
505;SDS011;551;48.524;9.056;2023-04-25T02:55:30;6.50;;;4.93;;
505;SDS011;551;48.524;9.056;2023-04-25T02:57:55;5.47;;;4.27;;
505;SDS011;551;48.524;9.056;2023-04-25T03:00:21;7.27;;;5.40;;
505;SDS011;551;48.524;9.056;2023-04-25T03:02:47;4.83;;;4.27;;
505;SDS011;551;48.524;9.056;2023-04-25T03:05:13;6.10;;;4.30;;
505;SDS011;551;48.524;9.056;2023-04-25T03:07:38;5.00;;;4.50;;
505;SDS011;551;48.524;9.056;2023-04-25T03:10:05;4.97;;;4.10;;
505;SDS011;551;48.524;9.056;2023-04-25T03:12:31;6.90;;;4.60;;
505;SDS011;551;48.524;9.056;2023-04-25T03:14:57;7.10;;;4.57;;
505;SDS011;551;48.524;9.056;2023-04-25T03:17:22;9.27;;;4.30;;
505;SDS011;551;48.524;9.056;2023-04-25T03:19:48;6.10;;;4.10;;
505;SDS011;551;48.524;9.056;2023-04-25T03:22:13;7.20;;;4.77;;
505;SDS011;551;48.524;9.056;2023-04-25T03:24:39;6.90;;;4.00;;
505;SDS011;551;48.524;9.056;2023-04-25T03:27:05;5.80;;;4.67;;
505;SDS011;551;48.524;9.056;2023-04-25T03:29:30;8.30;;;4.30;;
505;SDS011;551;48.524;9.056;2023-04-25T03:31:56;11.83;;;5.03;;
505;SDS011;551;48.524;9.056;2023-04-25T03:34:21;10.50;;;4.90;;
505;SDS011;551;48.524;9.056;2023-04-25T03:36:47;7.50;;;4.93;;
505;SDS011;551;48.524;9.056;2023-04-25T03:39:12;5.33;;;4.20;;
505;SDS011;551;48.524;9.056;2023-04-25T03:41:38;10.20;;;5.17;;
505;SDS011;551;48.524;9.056;2023-04-25T03:44:03;7.40;;;4.73;;
505;SDS011;551;48.524;9.056;2023-04-25T03:46:29;5.33;;;4.83;;
505;SDS011;551;48.524;9.056;2023-04-25T03:48:55;8.10;;;4.57;;
505;SDS011;551;48.524;9.056;2023-04-25T03:51:20;5.77;;;4.93;;
505;SDS011;551;48.524;9.056;2023-04-25T03:53:46;6.27;;;4.83;;
505;SDS011;551;48.524;9.056;2023-04-25T03:56:12;7.23;;;4.30;;
505;SDS011;551;48.524;9.056;2023-04-25T03:58:37;6.97;;;4.27;;
505;SDS011;551;48.524;9.056;2023-04-25T04:01:03;9.00;;;4.90;;
505;SDS011;551;48.524;9.056;2023-04-25T04:03:32;8.90;;;4.70;;
505;SDS011;551;48.524;9.056;2023-04-25T04:05:59;6.60;;;5.30;;
505;SDS011;551;48.524;9.056;2023-04-25T04:08:24;9.77;;;4.90;;
505;SDS011;551;48.524;9.056;2023-04-25T04:10:50;8.50;;;4.70;;
505;SDS011;551;48.524;9.056;2023-04-25T04:13:15;6.57;;;3.30;;
505;SDS011;551;48.524;9.056;2023-04-25T04:15:41;6.47;;;4.07;;
505;SDS011;551;48.524;9.056;2023-04-25T04:18:06;5.53;;;3.80;;
505;SDS011;551;48.524;9.056;2023-04-25T04:20:32;5.30;;;3.63;;
505;SDS011;551;48.524;9.056;2023-04-25T04:22:58;8.40;;;4.00;;
505;SDS011;551;48.524;9.056;2023-04-25T04:25:23;4.10;;;3.80;;
505;SDS011;551;48.524;9.056;2023-04-25T04:27:49;7.63;;;3.83;;
505;SDS011;551;48.524;9.056;2023-04-25T04:30:19;4.20;;;3.80;;
505;SDS011;551;48.524;9.056;2023-04-25T04:32:46;4.70;;;3.67;;
505;SDS011;551;48.524;9.056;2023-04-25T04:35:14;5.83;;;3.77;;
505;SDS011;551;48.524;9.056;2023-04-25T04:37:40;4.83;;;3.93;;
505;SDS011;551;48.524;9.056;2023-04-25T04:40:06;4.50;;;4.10;;
505;SDS011;551;48.524;9.056;2023-04-25T04:42:32;4.43;;;4.03;;
505;SDS011;551;48.524;9.056;2023-04-25T04:44:57;5.33;;;3.83;;
505;SDS011;551;48.524;9.056;2023-04-25T04:47:23;4.37;;;3.97;;
505;SDS011;551;48.524;9.056;2023-04-25T04:49:50;5.77;;;4.27;;
505;SDS011;551;48.524;9.056;2023-04-25T04:52:16;11.07;;;4.13;;
505;SDS011;551;48.524;9.056;2023-04-25T04:54:41;10.80;;;4.10;;
505;SDS011;551;48.524;9.056;2023-04-25T04:57:07;4.97;;;4.03;;
505;SDS011;551;48.524;9.056;2023-04-25T04:59:32;4.13;;;3.80;;
505;SDS011;551;48.524;9.056;2023-04-25T05:01:58;7.57;;;3.60;;
505;SDS011;551;48.524;9.056;2023-04-25T05:04:23;6.93;;;4.17;;
505;SDS011;551;48.524;9.056;2023-04-25T05:06:49;4.50;;;3.20;;
505;SDS011;551;48.524;9.056;2023-04-25T05:09:14;6.77;;;4.20;;
505;SDS011;551;48.524;9.056;2023-04-25T05:11:40;5.33;;;4.60;;
505;SDS011;551;48.524;9.056;2023-04-25T05:14:05;7.00;;;4.37;;
505;SDS011;551;48.524;9.056;2023-04-25T05:16:31;7.10;;;4.30;;
505;SDS011;551;48.524;9.056;2023-04-25T05:18:57;10.37;;;3.83;;
505;SDS011;551;48.524;9.056;2023-04-25T05:21:22;7.47;;;3.47;;
505;SDS011;551;48.524;9.056;2023-04-25T05:23:48;6.10;;;3.70;;
505;SDS011;551;48.524;9.056;2023-04-25T05:26:13;6.70;;;4.30;;
505;SDS011;551;48.524;9.056;2023-04-25T05:28:39;4.70;;;3.60;;
505;SDS011;551;48.524;9.056;2023-04-25T05:31:06;7.63;;;4.47;;
505;SDS011;551;48.524;9.056;2023-04-25T05:33:32;7.37;;;4.70;;
505;SDS011;551;48.524;9.056;2023-04-25T05:35:57;11.73;;;4.90;;
505;SDS011;551;48.524;9.056;2023-04-25T05:38:24;6.00;;;4.20;;
505;SDS011;551;48.524;9.056;2023-04-25T05:40:49;6.90;;;4.30;;
505;SDS011;551;48.524;9.056;2023-04-25T05:43:15;6.80;;;4.03;;
505;SDS011;551;48.524;9.056;2023-04-25T05:45:40;3.90;;;3.60;;
505;SDS011;551;48.524;9.056;2023-04-25T05:48:06;7.03;;;3.90;;
505;SDS011;551;48.524;9.056;2023-04-25T05:50:31;12.57;;;3.70;;
505;SDS011;551;48.524;9.056;2023-04-25T05:52:57;7.17;;;4.20;;
505;SDS011;551;48.524;9.056;2023-04-25T05:55:22;9.37;;;3.90;;
505;SDS011;551;48.524;9.056;2023-04-25T05:57:48;5.00;;;4.00;;
505;SDS011;551;48.524;9.056;2023-04-25T06:00:14;9.83;;;3.40;;
505;SDS011;551;48.524;9.056;2023-04-25T06:02:41;5.93;;;3.50;;
505;SDS011;551;48.524;9.056;2023-04-25T06:05:07;3.73;;;3.30;;
505;SDS011;551;48.524;9.056;2023-04-25T06:07:33;7.10;;;3.13;;
505;SDS011;551;48.524;9.056;2023-04-25T06:09:59;5.83;;;2.83;;
505;SDS011;551;48.524;9.056;2023-04-25T06:12:25;4.10;;;3.13;;
505;SDS011;551;48.524;9.056;2023-04-25T06:14:51;7.20;;;3.10;;
505;SDS011;551;48.524;9.056;2023-04-25T06:17:17;5.23;;;2.50;;
505;SDS011;551;48.524;9.056;2023-04-25T06:19:42;5.00;;;3.40;;
505;SDS011;551;48.524;9.056;2023-04-25T06:22:08;4.40;;;3.10;;
505;SDS011;551;48.524;9.056;2023-04-25T06:24:33;7.97;;;2.60;;
505;SDS011;551;48.524;9.056;2023-04-25T06:27:00;4.50;;;2.83;;
505;SDS011;551;48.524;9.056;2023-04-25T06:29:25;3.60;;;2.40;;
505;SDS011;551;48.524;9.056;2023-04-25T06:31:51;3.57;;;2.80;;
505;SDS011;551;48.524;9.056;2023-04-25T06:34:17;4.23;;;2.00;;
505;SDS011;551;48.524;9.056;2023-04-25T06:36:42;3.43;;;2.30;;
505;SDS011;551;48.524;9.056;2023-04-25T06:39:09;2.80;;;2.10;;
505;SDS011;551;48.524;9.056;2023-04-25T06:41:35;6.90;;;3.67;;
505;SDS011;551;48.524;9.056;2023-04-25T06:44:01;4.23;;;2.43;;
505;SDS011;551;48.524;9.056;2023-04-25T06:46:26;2.73;;;2.30;;
505;SDS011;551;48.524;9.056;2023-04-25T06:48:52;2.80;;;2.40;;
505;SDS011;551;48.524;9.056;2023-04-25T06:51:17;2.80;;;2.50;;
505;SDS011;551;48.524;9.056;2023-04-25T06:53:43;2.80;;;1.90;;
505;SDS011;551;48.524;9.056;2023-04-25T06:56:08;2.97;;;2.20;;
505;SDS011;551;48.524;9.056;2023-04-25T06:58:34;3.80;;;2.47;;
505;SDS011;551;48.524;9.056;2023-04-25T07:00:59;2.50;;;1.90;;
505;SDS011;551;48.524;9.056;2023-04-25T07:03:25;3.10;;;2.90;;
505;SDS011;551;48.524;9.056;2023-04-25T07:05:50;2.20;;;2.10;;
505;SDS011;551;48.524;9.056;2023-04-25T07:08:16;3.37;;;3.07;;
505;SDS011;551;48.524;9.056;2023-04-25T07:10:42;3.00;;;2.40;;
505;SDS011;551;48.524;9.056;2023-04-25T07:13:08;3.03;;;2.10;;
505;SDS011;551;48.524;9.056;2023-04-25T07:15:33;3.23;;;2.80;;
505;SDS011;551;48.524;9.056;2023-04-25T07:17:59;2.87;;;2.57;;
505;SDS011;551;48.524;9.056;2023-04-25T07:20:25;3.13;;;2.70;;
505;SDS011;551;48.524;9.056;2023-04-25T07:22:52;2.20;;;2.10;;
505;SDS011;551;48.524;9.056;2023-04-25T07:25:18;3.60;;;2.47;;
505;SDS011;551;48.524;9.056;2023-04-25T07:27:43;2.80;;;2.60;;
505;SDS011;551;48.524;9.056;2023-04-25T07:30:09;4.80;;;2.50;;
505;SDS011;551;48.524;9.056;2023-04-25T07:32:35;2.47;;;2.10;;
505;SDS011;551;48.524;9.056;2023-04-25T07:35:00;2.67;;;2.47;;
505;SDS011;551;48.524;9.056;2023-04-25T07:37:27;3.17;;;2.87;;
505;SDS011;551;48.524;9.056;2023-04-25T07:39:52;7.07;;;2.67;;
505;SDS011;551;48.524;9.056;2023-04-25T07:42:18;3.50;;;2.43;;
505;SDS011;551;48.524;9.056;2023-04-25T07:44:43;3.23;;;2.63;;
505;SDS011;551;48.524;9.056;2023-04-25T07:47:09;6.77;;;2.20;;
505;SDS011;551;48.524;9.056;2023-04-25T07:49:35;3.07;;;2.87;;
505;SDS011;551;48.524;9.056;2023-04-25T07:52:01;2.90;;;2.70;;
505;SDS011;551;48.524;9.056;2023-04-25T07:54:28;5.10;;;2.70;;
505;SDS011;551;48.524;9.056;2023-04-25T07:56:53;2.40;;;2.20;;
505;SDS011;551;48.524;9.056;2023-04-25T07:59:19;4.97;;;3.23;;
505;SDS011;551;48.524;9.056;2023-04-25T08:01:45;2.83;;;2.60;;
505;SDS011;551;48.524;9.056;2023-04-25T08:04:10;3.67;;;2.77;;
505;SDS011;551;48.524;9.056;2023-04-25T08:06:36;3.63;;;2.60;;
505;SDS011;551;48.524;9.056;2023-04-25T08:09:02;5.47;;;3.50;;
505;SDS011;551;48.524;9.056;2023-04-25T08:11:28;2.70;;;2.50;;
505;SDS011;551;48.524;9.056;2023-04-25T08:13:53;3.20;;;2.93;;
505;SDS011;551;48.524;9.056;2023-04-25T08:16:19;3.70;;;2.90;;
505;SDS011;551;48.524;9.056;2023-04-25T08:18:44;3.90;;;2.63;;
505;SDS011;551;48.524;9.056;2023-04-25T08:21:10;3.03;;;2.73;;
505;SDS011;551;48.524;9.056;2023-04-25T08:23:37;2.40;;;2.20;;
505;SDS011;551;48.524;9.056;2023-04-25T08:26:03;3.10;;;2.80;;
505;SDS011;551;48.524;9.056;2023-04-25T08:28:29;4.17;;;2.90;;
505;SDS011;551;48.524;9.056;2023-04-25T08:30:56;3.17;;;2.70;;
505;SDS011;551;48.524;9.056;2023-04-25T08:33:21;5.13;;;3.63;;
505;SDS011;551;48.524;9.056;2023-04-25T08:35:47;4.77;;;3.47;;
505;SDS011;551;48.524;9.056;2023-04-25T08:38:12;3.10;;;2.90;;
505;SDS011;551;48.524;9.056;2023-04-25T08:40:38;5.10;;;3.53;;
505;SDS011;551;48.524;9.056;2023-04-25T08:43:06;7.57;;;3.90;;
505;SDS011;551;48.524;9.056;2023-04-25T08:45:36;6.50;;;4.03;;
505;SDS011;551;48.524;9.056;2023-04-25T08:48:06;4.03;;;3.63;;
505;SDS011;551;48.524;9.056;2023-04-25T08:50:36;6.80;;;3.50;;
505;SDS011;551;48.524;9.056;2023-04-25T08:53:04;4.40;;;3.97;;
505;SDS011;551;48.524;9.056;2023-04-25T08:55:34;7.67;;;3.80;;
505;SDS011;551;48.524;9.056;2023-04-25T08:58:02;4.93;;;3.03;;
505;SDS011;551;48.524;9.056;2023-04-25T09:00:28;4.07;;;2.93;;
505;SDS011;551;48.524;9.056;2023-04-25T09:02:54;4.00;;;3.33;;
505;SDS011;551;48.524;9.056;2023-04-25T09:05:21;3.53;;;3.23;;
505;SDS011;551;48.524;9.056;2023-04-25T09:07:47;3.50;;;3.20;;
505;SDS011;551;48.524;9.056;2023-04-25T09:10:13;3.33;;;2.57;;
505;SDS011;551;48.524;9.056;2023-04-25T09:12:41;3.00;;;2.80;;
505;SDS011;551;48.524;9.056;2023-04-25T09:15:11;2.83;;;2.53;;
505;SDS011;551;48.524;9.056;2023-04-25T09:17:37;3.93;;;2.77;;
505;SDS011;551;48.524;9.056;2023-04-25T09:20:10;3.90;;;2.73;;
505;SDS011;551;48.524;9.056;2023-04-25T09:22:38;3.73;;;2.40;;
505;SDS011;551;48.524;9.056;2023-04-25T09:25:08;3.80;;;3.07;;
505;SDS011;551;48.524;9.056;2023-04-25T09:27:48;4.73;;;2.77;;
505;SDS011;551;48.524;9.056;2023-04-25T09:30:16;6.10;;;2.80;;
505;SDS011;551;48.524;9.056;2023-04-25T09:32:42;3.30;;;2.37;;
505;SDS011;551;48.524;9.056;2023-04-25T09:35:08;3.73;;;2.93;;
505;SDS011;551;48.524;9.056;2023-04-25T09:37:34;4.47;;;4.03;;
505;SDS011;551;48.524;9.056;2023-04-25T09:40:00;3.90;;;3.50;;
505;SDS011;551;48.524;9.056;2023-04-25T09:42:30;5.23;;;3.70;;
505;SDS011;551;48.524;9.056;2023-04-25T09:44:57;4.10;;;3.60;;
505;SDS011;551;48.524;9.056;2023-04-25T09:47:24;7.93;;;3.73;;
505;SDS011;551;48.524;9.056;2023-04-25T09:49:51;3.73;;;3.43;;
505;SDS011;551;48.524;9.056;2023-04-25T09:52:19;4.70;;;3.97;;
505;SDS011;551;48.524;9.056;2023-04-25T09:54:46;8.60;;;3.87;;
505;SDS011;551;48.524;9.056;2023-04-25T09:57:14;3.43;;;3.10;;
505;SDS011;551;48.524;9.056;2023-04-25T09:59:45;2.77;;;2.40;;
505;SDS011;551;48.524;9.056;2023-04-25T10:02:12;2.53;;;2.43;;
505;SDS011;551;48.524;9.056;2023-04-25T10:04:49;2.60;;;2.00;;
505;SDS011;551;48.524;9.056;2023-04-25T10:07:18;2.10;;;1.90;;
505;SDS011;551;48.524;9.056;2023-04-25T10:09:47;1.50;;;1.40;;
505;SDS011;551;48.524;9.056;2023-04-25T10:12:15;2.03;;;1.50;;
505;SDS011;551;48.524;9.056;2023-04-25T10:14:42;2.93;;;1.50;;
505;SDS011;551;48.524;9.056;2023-04-25T10:17:08;1.90;;;1.63;;
505;SDS011;551;48.524;9.056;2023-04-25T10:19:36;1.33;;;1.23;;
505;SDS011;551;48.524;9.056;2023-04-25T10:22:11;1.20;;;1.10;;
505;SDS011;551;48.524;9.056;2023-04-25T10:24:42;1.40;;;1.30;;
505;SDS011;551;48.524;9.056;2023-04-25T10:27:09;1.90;;;1.80;;
505;SDS011;551;48.524;9.056;2023-04-25T10:29:35;1.70;;;1.37;;
505;SDS011;551;48.524;9.056;2023-04-25T10:32:01;1.43;;;1.33;;
505;SDS011;551;48.524;9.056;2023-04-25T10:34:43;3.63;;;1.63;;
505;SDS011;551;48.524;9.056;2023-04-25T10:37:12;1.40;;;1.30;;
505;SDS011;551;48.524;9.056;2023-04-25T10:39:41;4.90;;;1.20;;
505;SDS011;551;48.524;9.056;2023-04-25T10:42:07;8.23;;;1.83;;
505;SDS011;551;48.524;9.056;2023-04-25T10:44:33;2.80;;;1.50;;
505;SDS011;551;48.524;9.056;2023-04-25T10:47:00;1.80;;;1.63;;
505;SDS011;551;48.524;9.056;2023-04-25T10:49:30;1.23;;;1.20;;
505;SDS011;551;48.524;9.056;2023-04-25T10:52:16;1.00;;;1.00;;
505;SDS011;551;48.524;9.056;2023-04-25T10:54:47;1.20;;;1.10;;
505;SDS011;551;48.524;9.056;2023-04-25T10:57:26;1.63;;;0.90;;
505;SDS011;551;48.524;9.056;2023-04-25T10:59:59;1.20;;;1.10;;
505;SDS011;551;48.524;9.056;2023-04-25T11:02:28;1.20;;;1.10;;
505;SDS011;551;48.524;9.056;2023-04-25T11:04:53;1.10;;;1.00;;
505;SDS011;551;48.524;9.056;2023-04-25T11:07:26;1.07;;;1.07;;
505;SDS011;551;48.524;9.056;2023-04-25T11:10:02;1.20;;;1.10;;
505;SDS011;551;48.524;9.056;2023-04-25T11:12:29;0.80;;;0.80;;
505;SDS011;551;48.524;9.056;2023-04-25T11:14:59;2.67;;;1.37;;
505;SDS011;551;48.524;9.056;2023-04-25T11:17:29;1.07;;;1.00;;
505;SDS011;551;48.524;9.056;2023-04-25T11:19:55;1.13;;;1.10;;
505;SDS011;551;48.524;9.056;2023-04-25T11:22:21;1.10;;;1.00;;
505;SDS011;551;48.524;9.056;2023-04-25T11:24:47;2.20;;;1.10;;
505;SDS011;551;48.524;9.056;2023-04-25T11:27:13;2.57;;;1.47;;
505;SDS011;551;48.524;9.056;2023-04-25T11:29:39;1.27;;;1.17;;
505;SDS011;551;48.524;9.056;2023-04-25T11:32:05;1.30;;;1.20;;
505;SDS011;551;48.524;9.056;2023-04-25T11:34:32;1.57;;;1.47;;
505;SDS011;551;48.524;9.056;2023-04-25T11:36:59;3.43;;;1.30;;
505;SDS011;551;48.524;9.056;2023-04-25T11:39:27;1.30;;;1.20;;
505;SDS011;551;48.524;9.056;2023-04-25T11:41:53;1.47;;;1.37;;
505;SDS011;551;48.524;9.056;2023-04-25T11:44:19;1.20;;;1.20;;
505;SDS011;551;48.524;9.056;2023-04-25T11:46:46;1.73;;;1.10;;
505;SDS011;551;48.524;9.056;2023-04-25T11:49:12;0.97;;;0.97;;
505;SDS011;551;48.524;9.056;2023-04-25T11:51:43;1.40;;;1.07;;
505;SDS011;551;48.524;9.056;2023-04-25T11:54:10;1.30;;;1.20;;
505;SDS011;551;48.524;9.056;2023-04-25T11:56:36;0.97;;;0.97;;
505;SDS011;551;48.524;9.056;2023-04-25T11:59:03;0.97;;;0.97;;
505;SDS011;551;48.524;9.056;2023-04-25T12:01:34;0.93;;;0.90;;
505;SDS011;551;48.524;9.056;2023-04-25T12:04:14;1.20;;;1.03;;
505;SDS011;551;48.524;9.056;2023-04-25T12:06:41;1.40;;;1.30;;
505;SDS011;551;48.524;9.056;2023-04-25T12:09:09;1.50;;;1.40;;
505;SDS011;551;48.524;9.056;2023-04-25T12:11:42;1.87;;;1.77;;
505;SDS011;551;48.524;9.056;2023-04-25T12:14:10;1.43;;;1.33;;
505;SDS011;551;48.524;9.056;2023-04-25T12:16:46;1.70;;;1.57;;
505;SDS011;551;48.524;9.056;2023-04-25T12:19:15;2.00;;;1.90;;
505;SDS011;551;48.524;9.056;2023-04-25T12:21:41;1.53;;;1.43;;
505;SDS011;551;48.524;9.056;2023-04-25T12:24:09;1.47;;;1.37;;
505;SDS011;551;48.524;9.056;2023-04-25T12:29:24;1.90;;;1.50;;
505;SDS011;551;48.524;9.056;2023-04-25T12:31:52;1.07;;;1.03;;
505;SDS011;551;48.524;9.056;2023-04-25T12:34:19;1.60;;;1.50;;
505;SDS011;551;48.524;9.056;2023-04-25T12:36:46;1.40;;;1.30;;
505;SDS011;551;48.524;9.056;2023-04-25T12:39:18;1.60;;;1.30;;
505;SDS011;551;48.524;9.056;2023-04-25T12:41:45;1.87;;;1.13;;
505;SDS011;551;48.524;9.056;2023-04-25T12:44:11;1.83;;;1.10;;
505;SDS011;551;48.524;9.056;2023-04-25T12:46:37;0.97;;;0.97;;
505;SDS011;551;48.524;9.056;2023-04-25T12:49:03;1.60;;;1.50;;
505;SDS011;551;48.524;9.056;2023-04-25T12:51:29;1.37;;;1.27;;
505;SDS011;551;48.524;9.056;2023-04-25T12:53:55;1.50;;;1.30;;
505;SDS011;551;48.524;9.056;2023-04-25T12:56:21;1.47;;;1.37;;
505;SDS011;551;48.524;9.056;2023-04-25T12:58:46;1.80;;;1.30;;
505;SDS011;551;48.524;9.056;2023-04-25T13:01:13;1.53;;;1.43;;
505;SDS011;551;48.524;9.056;2023-04-25T13:03:39;1.63;;;1.53;;
505;SDS011;551;48.524;9.056;2023-04-25T13:06:06;1.23;;;1.13;;
505;SDS011;551;48.524;9.056;2023-04-25T13:08:32;1.37;;;1.27;;
505;SDS011;551;48.524;9.056;2023-04-25T13:10:57;1.77;;;1.67;;
505;SDS011;551;48.524;9.056;2023-04-25T13:13:23;1.60;;;1.50;;
505;SDS011;551;48.524;9.056;2023-04-25T13:15:48;1.53;;;1.43;;
505;SDS011;551;48.524;9.056;2023-04-25T13:18:14;1.70;;;1.60;;
505;SDS011;551;48.524;9.056;2023-04-25T13:20:40;2.83;;;1.77;;
505;SDS011;551;48.524;9.056;2023-04-25T13:23:08;1.93;;;1.83;;
505;SDS011;551;48.524;9.056;2023-04-25T13:25:33;4.33;;;2.00;;
505;SDS011;551;48.524;9.056;2023-04-25T13:27:59;2.50;;;2.30;;
505;SDS011;551;48.524;9.056;2023-04-25T13:30:25;2.80;;;2.60;;
505;SDS011;551;48.524;9.056;2023-04-25T13:32:50;2.63;;;2.40;;
505;SDS011;551;48.524;9.056;2023-04-25T13:35:16;2.40;;;2.10;;
505;SDS011;551;48.524;9.056;2023-04-25T13:37:41;2.87;;;2.10;;
505;SDS011;551;48.524;9.056;2023-04-25T13:40:08;2.70;;;2.50;;
505;SDS011;551;48.524;9.056;2023-04-25T13:42:36;2.80;;;2.27;;
505;SDS011;551;48.524;9.056;2023-04-25T13:45:02;3.80;;;2.60;;
505;SDS011;551;48.524;9.056;2023-04-25T13:47:28;5.23;;;3.10;;
505;SDS011;551;48.524;9.056;2023-04-25T13:49:55;2.83;;;2.63;;
505;SDS011;551;48.524;9.056;2023-04-25T13:52:20;2.93;;;2.73;;
505;SDS011;551;48.524;9.056;2023-04-25T13:54:46;3.27;;;2.80;;
505;SDS011;551;48.524;9.056;2023-04-25T13:57:11;3.03;;;2.83;;
505;SDS011;551;48.524;9.056;2023-04-25T13:59:37;3.93;;;3.30;;
505;SDS011;551;48.524;9.056;2023-04-25T14:02:03;3.90;;;3.40;;
505;SDS011;551;48.524;9.056;2023-04-25T14:04:29;4.00;;;3.57;;
505;SDS011;551;48.524;9.056;2023-04-25T14:06:55;4.17;;;3.73;;
505;SDS011;551;48.524;9.056;2023-04-25T14:09:21;5.33;;;3.10;;
505;SDS011;551;48.524;9.056;2023-04-25T14:11:50;4.40;;;3.60;;
505;SDS011;551;48.524;9.056;2023-04-25T14:14:19;4.33;;;3.90;;
505;SDS011;551;48.524;9.056;2023-04-25T14:16:46;5.20;;;3.73;;
505;SDS011;551;48.524;9.056;2023-04-25T14:19:15;5.03;;;3.60;;
505;SDS011;551;48.524;9.056;2023-04-25T14:21:41;5.43;;;4.90;;
505;SDS011;551;48.524;9.056;2023-04-25T14:24:08;8.13;;;5.10;;
505;SDS011;551;48.524;9.056;2023-04-25T14:26:34;5.27;;;4.80;;
505;SDS011;551;48.524;9.056;2023-04-25T14:29:00;4.90;;;4.40;;
505;SDS011;551;48.524;9.056;2023-04-25T14:31:26;8.07;;;5.07;;
505;SDS011;551;48.524;9.056;2023-04-25T14:33:52;6.90;;;5.50;;
505;SDS011;551;48.524;9.056;2023-04-25T14:36:18;6.37;;;5.20;;
505;SDS011;551;48.524;9.056;2023-04-25T14:38:43;6.23;;;4.63;;
505;SDS011;551;48.524;9.056;2023-04-25T14:41:09;5.20;;;4.53;;
505;SDS011;551;48.524;9.056;2023-04-25T14:43:35;7.90;;;5.40;;
505;SDS011;551;48.524;9.056;2023-04-25T14:46:01;9.80;;;5.17;;
505;SDS011;551;48.524;9.056;2023-04-25T14:48:27;9.30;;;5.50;;
505;SDS011;551;48.524;9.056;2023-04-25T14:50:54;6.10;;;4.37;;
505;SDS011;551;48.524;9.056;2023-04-25T14:53:21;6.87;;;5.40;;
505;SDS011;551;48.524;9.056;2023-04-25T14:55:48;6.50;;;4.23;;
505;SDS011;551;48.524;9.056;2023-04-25T14:58:14;8.60;;;4.83;;
505;SDS011;551;48.524;9.056;2023-04-25T15:00:39;4.30;;;4.00;;
505;SDS011;551;48.524;9.056;2023-04-25T15:03:05;10.87;;;5.43;;
505;SDS011;551;48.524;9.056;2023-04-25T15:05:32;7.27;;;5.73;;
505;SDS011;551;48.524;9.056;2023-04-25T15:07:59;5.00;;;4.50;;
505;SDS011;551;48.524;9.056;2023-04-25T15:10:25;7.43;;;6.30;;
505;SDS011;551;48.524;9.056;2023-04-25T15:12:50;6.30;;;5.63;;
505;SDS011;551;48.524;9.056;2023-04-25T15:15:18;7.90;;;5.20;;
505;SDS011;551;48.524;9.056;2023-04-25T15:17:44;5.83;;;5.27;;
505;SDS011;551;48.524;9.056;2023-04-25T15:20:10;7.27;;;5.63;;
505;SDS011;551;48.524;9.056;2023-04-25T15:22:40;5.80;;;4.80;;
505;SDS011;551;48.524;9.056;2023-04-25T15:25:07;4.97;;;4.43;;
505;SDS011;551;48.524;9.056;2023-04-25T15:27:34;5.20;;;4.70;;
505;SDS011;551;48.524;9.056;2023-04-25T15:30:03;5.73;;;4.20;;
505;SDS011;551;48.524;9.056;2023-04-25T15:32:30;4.37;;;3.97;;
505;SDS011;551;48.524;9.056;2023-04-25T15:34:56;5.33;;;3.70;;
505;SDS011;551;48.524;9.056;2023-04-25T15:37:21;6.27;;;4.87;;
505;SDS011;551;48.524;9.056;2023-04-25T15:39:47;5.10;;;4.47;;
505;SDS011;551;48.524;9.056;2023-04-25T15:42:12;4.30;;;3.97;;
505;SDS011;551;48.524;9.056;2023-04-25T15:44:38;4.90;;;4.00;;